sensor_id;sensor_type;location;lat;lon;timestamp;P1;durP1;ratioP1;P2;durP2;ratioP2
7446;SDS011;3765;47.962;7.952;2023-02-10T00:01:38;29.43;;;15.70;;
7446;SDS011;3765;47.962;7.952;2023-02-10T00:04:06;30.90;;;17.10;;
7446;SDS011;3765;47.962;7.952;2023-02-10T00:06:35;33.13;;;18.20;;
7446;SDS011;3765;47.962;7.952;2023-02-10T00:09:03;33.17;;;15.70;;
7446;SDS011;3765;47.962;7.952;2023-02-10T00:11:31;25.97;;;16.00;;
7446;SDS011;3765;47.962;7.952;2023-02-10T00:14:19;31.13;;;15.80;;
7446;SDS011;3765;47.962;7.952;2023-02-10T00:16:48;27.80;;;15.70;;
7446;SDS011;3765;47.962;7.952;2023-02-10T00:19:18;27.87;;;16.30;;
7446;SDS011;3765;47.962;7.952;2023-02-10T00:21:46;30.87;;;16.63;;
7446;SDS011;3765;47.962;7.952;2023-02-10T00:24:15;29.37;;;15.87;;
7446;SDS011;3765;47.962;7.952;2023-02-10T00:26:43;30.60;;;17.10;;
7446;SDS011;3765;47.962;7.952;2023-02-10T00:29:11;31.57;;;18.30;;
7446;SDS011;3765;47.962;7.952;2023-02-10T00:31:41;40.50;;;18.20;;
7446;SDS011;3765;47.962;7.952;2023-02-10T00:34:10;36.80;;;20.23;;
7446;SDS011;3765;47.962;7.952;2023-02-10T00:36:39;30.03;;;16.73;;
7446;SDS011;3765;47.962;7.952;2023-02-10T00:39:09;26.57;;;15.30;;
7446;SDS011;3765;47.962;7.952;2023-02-10T00:41:40;31.07;;;15.90;;
7446;SDS011;3765;47.962;7.952;2023-02-10T00:44:08;25.30;;;14.90;;
7446;SDS011;3765;47.962;7.952;2023-02-10T00:46:37;26.90;;;15.00;;
7446;SDS011;3765;47.962;7.952;2023-02-10T00:49:08;25.23;;;14.60;;
7446;SDS011;3765;47.962;7.952;2023-02-10T00:51:37;28.43;;;16.23;;
7446;SDS011;3765;47.962;7.952;2023-02-10T00:54:06;30.23;;;15.70;;
7446;SDS011;3765;47.962;7.952;2023-02-10T00:56:36;30.77;;;15.30;;
7446;SDS011;3765;47.962;7.952;2023-02-10T00:59:11;26.90;;;15.03;;
7446;SDS011;3765;47.962;7.952;2023-02-10T01:01:43;28.07;;;14.17;;
7446;SDS011;3765;47.962;7.952;2023-02-10T01:04:25;28.37;;;14.03;;
7446;SDS011;3765;47.962;7.952;2023-02-10T01:06:56;28.93;;;14.13;;
7446;SDS011;3765;47.962;7.952;2023-02-10T01:09:28;27.63;;;14.10;;
7446;SDS011;3765;47.962;7.952;2023-02-10T01:11:57;23.40;;;14.67;;
7446;SDS011;3765;47.962;7.952;2023-02-10T01:14:29;26.80;;;15.00;;
7446;SDS011;3765;47.962;7.952;2023-02-10T01:17:09;25.73;;;14.23;;
7446;SDS011;3765;47.962;7.952;2023-02-10T01:19:42;26.27;;;14.67;;
7446;SDS011;3765;47.962;7.952;2023-02-10T01:22:19;25.60;;;15.00;;
7446;SDS011;3765;47.962;7.952;2023-02-10T01:24:51;29.13;;;15.07;;
7446;SDS011;3765;47.962;7.952;2023-02-10T01:27:20;30.83;;;15.20;;
7446;SDS011;3765;47.962;7.952;2023-02-10T01:29:51;25.77;;;14.80;;
7446;SDS011;3765;47.962;7.952;2023-02-10T01:32:22;25.40;;;15.30;;
7446;SDS011;3765;47.962;7.952;2023-02-10T01:34:54;26.20;;;15.63;;
7446;SDS011;3765;47.962;7.952;2023-02-10T01:37:23;27.10;;;14.87;;
7446;SDS011;3765;47.962;7.952;2023-02-10T01:39:53;29.17;;;15.73;;
7446;SDS011;3765;47.962;7.952;2023-02-10T01:42:25;26.27;;;15.20;;
7446;SDS011;3765;47.962;7.952;2023-02-10T01:45:11;25.47;;;15.40;;
7446;SDS011;3765;47.962;7.952;2023-02-10T01:47:47;28.27;;;15.27;;
7446;SDS011;3765;47.962;7.952;2023-02-10T01:50:25;34.40;;;15.90;;
7446;SDS011;3765;47.962;7.952;2023-02-10T01:52:56;27.93;;;15.43;;
7446;SDS011;3765;47.962;7.952;2023-02-10T01:55:28;30.10;;;17.33;;
7446;SDS011;3765;47.962;7.952;2023-02-10T01:58:00;30.40;;;16.27;;
7446;SDS011;3765;47.962;7.952;2023-02-10T02:00:38;36.80;;;17.53;;
7446;SDS011;3765;47.962;7.952;2023-02-10T02:03:16;29.40;;;17.07;;
7446;SDS011;3765;47.962;7.952;2023-02-10T02:05:49;30.07;;;17.60;;
7446;SDS011;3765;47.962;7.952;2023-02-10T02:08:23;29.57;;;16.47;;
7446;SDS011;3765;47.962;7.952;2023-02-10T02:11:01;33.07;;;17.03;;
7446;SDS011;3765;47.962;7.952;2023-02-10T02:16:54;28.77;;;17.30;;
7446;SDS011;3765;47.962;7.952;2023-02-10T02:23:22;30.90;;;17.43;;
7446;SDS011;3765;47.962;7.952;2023-02-10T02:29:43;32.40;;;17.70;;
7446;SDS011;3765;47.962;7.952;2023-02-10T02:33:15;27.10;;;16.87;;
7446;SDS011;3765;47.962;7.952;2023-02-10T02:35:52;28.20;;;16.80;;
7446;SDS011;3765;47.962;7.952;2023-02-10T02:38:27;28.00;;;17.23;;
7446;SDS011;3765;47.962;7.952;2023-02-10T02:40:58;29.27;;;16.60;;
7446;SDS011;3765;47.962;7.952;2023-02-10T02:43:27;29.83;;;18.10;;
7446;SDS011;3765;47.962;7.952;2023-02-10T02:45:58;28.73;;;16.90;;
7446;SDS011;3765;47.962;7.952;2023-02-10T02:48:55;39.93;;;17.87;;
7446;SDS011;3765;47.962;7.952;2023-02-10T02:51:34;32.97;;;17.70;;
7446;SDS011;3765;47.962;7.952;2023-02-10T02:54:18;29.40;;;16.87;;
7446;SDS011;3765;47.962;7.952;2023-02-10T02:56:55;29.63;;;18.77;;
7446;SDS011;3765;47.962;7.952;2023-02-10T02:59:34;31.50;;;18.57;;
7446;SDS011;3765;47.962;7.952;2023-02-10T03:02:09;29.03;;;17.70;;
7446;SDS011;3765;47.962;7.952;2023-02-10T03:04:46;29.47;;;17.60;;
7446;SDS011;3765;47.962;7.952;2023-02-10T03:07:17;30.10;;;18.67;;
7446;SDS011;3765;47.962;7.952;2023-02-10T03:09:46;32.97;;;18.60;;
7446;SDS011;3765;47.962;7.952;2023-02-10T03:12:17;30.70;;;19.20;;
7446;SDS011;3765;47.962;7.952;2023-02-10T03:14:46;32.03;;;19.63;;
7446;SDS011;3765;47.962;7.952;2023-02-10T03:17:22;32.40;;;19.30;;
7446;SDS011;3765;47.962;7.952;2023-02-10T03:19:54;35.90;;;20.27;;
7446;SDS011;3765;47.962;7.952;2023-02-10T03:22:24;31.30;;;19.30;;
7446;SDS011;3765;47.962;7.952;2023-02-10T03:24:56;37.77;;;21.93;;
7446;SDS011;3765;47.962;7.952;2023-02-10T03:27:30;34.93;;;20.60;;
7446;SDS011;3765;47.962;7.952;2023-02-10T03:30:00;39.70;;;20.60;;
7446;SDS011;3765;47.962;7.952;2023-02-10T03:32:30;32.33;;;20.47;;
7446;SDS011;3765;47.962;7.952;2023-02-10T03:35:00;33.70;;;19.83;;
7446;SDS011;3765;47.962;7.952;2023-02-10T03:37:32;33.57;;;20.70;;
7446;SDS011;3765;47.962;7.952;2023-02-10T03:40:02;34.93;;;20.53;;
7446;SDS011;3765;47.962;7.952;2023-02-10T03:42:31;33.27;;;19.50;;
7446;SDS011;3765;47.962;7.952;2023-02-10T03:45:02;34.00;;;19.90;;
7446;SDS011;3765;47.962;7.952;2023-02-10T03:47:32;36.30;;;20.03;;
7446;SDS011;3765;47.962;7.952;2023-02-10T03:50:07;43.80;;;20.67;;
7446;SDS011;3765;47.962;7.952;2023-02-10T03:52:45;36.20;;;20.97;;
7446;SDS011;3765;47.962;7.952;2023-02-10T03:55:13;34.90;;;20.20;;
7446;SDS011;3765;47.962;7.952;2023-02-10T03:57:45;38.93;;;21.30;;
7446;SDS011;3765;47.962;7.952;2023-02-10T04:00:15;36.87;;;20.23;;
7446;SDS011;3765;47.962;7.952;2023-02-10T04:02:46;32.17;;;19.63;;
7446;SDS011;3765;47.962;7.952;2023-02-10T04:05:23;36.73;;;19.80;;
7446;SDS011;3765;47.962;7.952;2023-02-10T04:07:53;34.77;;;20.50;;
7446;SDS011;3765;47.962;7.952;2023-02-10T04:10:23;38.63;;;20.90;;
7446;SDS011;3765;47.962;7.952;2023-02-10T04:12:51;35.43;;;20.37;;
7446;SDS011;3765;47.962;7.952;2023-02-10T04:15:24;37.03;;;21.50;;
7446;SDS011;3765;47.962;7.952;2023-02-10T04:17:56;30.70;;;20.23;;
7446;SDS011;3765;47.962;7.952;2023-02-10T04:20:31;32.37;;;19.57;;
7446;SDS011;3765;47.962;7.952;2023-02-10T04:23:04;33.30;;;20.33;;
7446;SDS011;3765;47.962;7.952;2023-02-10T04:25:34;40.23;;;21.77;;
7446;SDS011;3765;47.962;7.952;2023-02-10T04:28:02;35.70;;;20.47;;
7446;SDS011;3765;47.962;7.952;2023-02-10T04:30:34;38.53;;;21.27;;
7446;SDS011;3765;47.962;7.952;2023-02-10T04:33:03;39.37;;;21.83;;
7446;SDS011;3765;47.962;7.952;2023-02-10T04:35:38;36.17;;;21.27;;
7446;SDS011;3765;47.962;7.952;2023-02-10T04:38:20;41.90;;;20.90;;
7446;SDS011;3765;47.962;7.952;2023-02-10T04:40:50;42.53;;;22.27;;
7446;SDS011;3765;47.962;7.952;2023-02-10T04:43:20;41.57;;;22.93;;
7446;SDS011;3765;47.962;7.952;2023-02-10T04:45:52;42.00;;;22.00;;
7446;SDS011;3765;47.962;7.952;2023-02-10T04:48:21;40.43;;;22.33;;
7446;SDS011;3765;47.962;7.952;2023-02-10T04:50:51;31.77;;;20.33;;
7446;SDS011;3765;47.962;7.952;2023-02-10T04:53:24;35.43;;;20.80;;
7446;SDS011;3765;47.962;7.952;2023-02-10T04:55:57;34.40;;;21.33;;
7446;SDS011;3765;47.962;7.952;2023-02-10T04:58:27;38.30;;;22.07;;
7446;SDS011;3765;47.962;7.952;2023-02-10T05:00:57;36.87;;;21.80;;
7446;SDS011;3765;47.962;7.952;2023-02-10T05:03:26;37.90;;;21.10;;
7446;SDS011;3765;47.962;7.952;2023-02-10T05:06:06;36.70;;;21.33;;
7446;SDS011;3765;47.962;7.952;2023-02-10T05:08:42;36.90;;;21.70;;
7446;SDS011;3765;47.962;7.952;2023-02-10T05:11:13;37.20;;;24.40;;
7446;SDS011;3765;47.962;7.952;2023-02-10T05:13:44;45.23;;;28.30;;
7446;SDS011;3765;47.962;7.952;2023-02-10T05:16:13;46.20;;;25.20;;
7446;SDS011;3765;47.962;7.952;2023-02-10T05:18:45;42.57;;;24.57;;
7446;SDS011;3765;47.962;7.952;2023-02-10T05:24:01;34.20;;;20.60;;
7446;SDS011;3765;47.962;7.952;2023-02-10T05:26:33;35.20;;;20.00;;
7446;SDS011;3765;47.962;7.952;2023-02-10T05:29:02;35.13;;;20.50;;
7446;SDS011;3765;47.962;7.952;2023-02-10T05:31:30;43.67;;;21.60;;
7446;SDS011;3765;47.962;7.952;2023-02-10T05:34:01;35.77;;;21.57;;
7446;SDS011;3765;47.962;7.952;2023-02-10T05:36:36;36.93;;;21.83;;
7446;SDS011;3765;47.962;7.952;2023-02-10T05:39:11;33.33;;;22.10;;
7446;SDS011;3765;47.962;7.952;2023-02-10T05:41:52;36.10;;;20.60;;
7446;SDS011;3765;47.962;7.952;2023-02-10T05:44:25;35.30;;;20.40;;
7446;SDS011;3765;47.962;7.952;2023-02-10T05:46:55;36.70;;;21.33;;
7446;SDS011;3765;47.962;7.952;2023-02-10T05:49:24;37.17;;;20.77;;
7446;SDS011;3765;47.962;7.952;2023-02-10T05:54:39;35.87;;;20.90;;
7446;SDS011;3765;47.962;7.952;2023-02-10T05:57:10;37.07;;;20.37;;
7446;SDS011;3765;47.962;7.952;2023-02-10T05:59:38;37.50;;;21.27;;
7446;SDS011;3765;47.962;7.952;2023-02-10T06:02:10;40.80;;;26.53;;
7446;SDS011;3765;47.962;7.952;2023-02-10T06:04:38;37.47;;;22.97;;
7446;SDS011;3765;47.962;7.952;2023-02-10T06:07:08;35.27;;;21.33;;
7446;SDS011;3765;47.962;7.952;2023-02-10T06:09:38;32.90;;;20.17;;
7446;SDS011;3765;47.962;7.952;2023-02-10T06:12:14;36.13;;;21.10;;
7446;SDS011;3765;47.962;7.952;2023-02-10T06:14:57;40.40;;;21.03;;
7446;SDS011;3765;47.962;7.952;2023-02-10T06:17:26;41.43;;;22.83;;
7446;SDS011;3765;47.962;7.952;2023-02-10T06:19:58;38.27;;;20.00;;
7446;SDS011;3765;47.962;7.952;2023-02-10T06:22:31;35.83;;;20.90;;
7446;SDS011;3765;47.962;7.952;2023-02-10T06:25:06;36.50;;;20.10;;
7446;SDS011;3765;47.962;7.952;2023-02-10T06:27:43;36.30;;;19.67;;
7446;SDS011;3765;47.962;7.952;2023-02-10T06:30:14;41.63;;;20.93;;
7446;SDS011;3765;47.962;7.952;2023-02-10T06:32:47;33.97;;;21.20;;
7446;SDS011;3765;47.962;7.952;2023-02-10T06:35:18;39.27;;;20.50;;
7446;SDS011;3765;47.962;7.952;2023-02-10T06:37:46;34.60;;;21.33;;
7446;SDS011;3765;47.962;7.952;2023-02-10T06:40:19;33.97;;;20.13;;
7446;SDS011;3765;47.962;7.952;2023-02-10T06:42:51;34.63;;;19.30;;
7446;SDS011;3765;47.962;7.952;2023-02-10T06:45:21;32.27;;;19.20;;
7446;SDS011;3765;47.962;7.952;2023-02-10T06:47:52;42.33;;;25.80;;
7446;SDS011;3765;47.962;7.952;2023-02-10T06:50:22;43.77;;;23.33;;
7446;SDS011;3765;47.962;7.952;2023-02-10T06:52:55;49.33;;;25.67;;
7446;SDS011;3765;47.962;7.952;2023-02-10T06:55:28;37.77;;;22.30;;
7446;SDS011;3765;47.962;7.952;2023-02-10T06:58:04;35.83;;;22.73;;
7446;SDS011;3765;47.962;7.952;2023-02-10T07:00:32;33.50;;;22.13;;
7446;SDS011;3765;47.962;7.952;2023-02-10T07:03:04;33.47;;;19.87;;
7446;SDS011;3765;47.962;7.952;2023-02-10T07:05:37;36.63;;;19.80;;
7446;SDS011;3765;47.962;7.952;2023-02-10T07:08:06;37.03;;;19.13;;
7446;SDS011;3765;47.962;7.952;2023-02-10T07:10:38;36.53;;;19.60;;
7446;SDS011;3765;47.962;7.952;2023-02-10T07:13:07;33.83;;;20.23;;
7446;SDS011;3765;47.962;7.952;2023-02-10T07:15:37;34.57;;;20.03;;
7446;SDS011;3765;47.962;7.952;2023-02-10T07:18:07;38.83;;;19.47;;
7446;SDS011;3765;47.962;7.952;2023-02-10T07:20:35;41.03;;;19.23;;
7446;SDS011;3765;47.962;7.952;2023-02-10T07:23:04;47.80;;;20.33;;
7446;SDS011;3765;47.962;7.952;2023-02-10T07:25:59;36.20;;;19.33;;
7446;SDS011;3765;47.962;7.952;2023-02-10T07:28:27;32.37;;;19.10;;
7446;SDS011;3765;47.962;7.952;2023-02-10T07:30:57;35.57;;;19.87;;
7446;SDS011;3765;47.962;7.952;2023-02-10T07:33:29;41.50;;;21.23;;
7446;SDS011;3765;47.962;7.952;2023-02-10T07:36:04;43.80;;;22.53;;
7446;SDS011;3765;47.962;7.952;2023-02-10T07:38:34;40.17;;;22.57;;
7446;SDS011;3765;47.962;7.952;2023-02-10T07:41:07;36.93;;;21.50;;
7446;SDS011;3765;47.962;7.952;2023-02-10T07:43:35;33.60;;;19.83;;
7446;SDS011;3765;47.962;7.952;2023-02-10T07:46:04;39.60;;;21.17;;
7446;SDS011;3765;47.962;7.952;2023-02-10T07:48:33;29.50;;;18.07;;
7446;SDS011;3765;47.962;7.952;2023-02-10T07:51:05;30.37;;;18.97;;
7446;SDS011;3765;47.962;7.952;2023-02-10T07:53:33;35.33;;;21.37;;
7446;SDS011;3765;47.962;7.952;2023-02-10T07:56:05;36.73;;;20.20;;
7446;SDS011;3765;47.962;7.952;2023-02-10T07:58:35;45.37;;;21.23;;
7446;SDS011;3765;47.962;7.952;2023-02-10T08:01:15;32.50;;;20.47;;
7446;SDS011;3765;47.962;7.952;2023-02-10T08:03:49;33.83;;;21.23;;
7446;SDS011;3765;47.962;7.952;2023-02-10T08:06:27;36.43;;;21.73;;
7446;SDS011;3765;47.962;7.952;2023-02-10T08:09:12;39.50;;;23.73;;
7446;SDS011;3765;47.962;7.952;2023-02-10T08:11:50;50.00;;;26.00;;
7446;SDS011;3765;47.962;7.952;2023-02-10T08:14:31;39.60;;;23.33;;
7446;SDS011;3765;47.962;7.952;2023-02-10T08:17:00;42.83;;;24.13;;
7446;SDS011;3765;47.962;7.952;2023-02-10T08:19:34;39.50;;;25.20;;
7446;SDS011;3765;47.962;7.952;2023-02-10T08:22:08;48.67;;;26.70;;
7446;SDS011;3765;47.962;7.952;2023-02-10T08:24:45;47.00;;;23.17;;
7446;SDS011;3765;47.962;7.952;2023-02-10T08:27:18;45.53;;;24.33;;
7446;SDS011;3765;47.962;7.952;2023-02-10T08:29:51;40.40;;;24.77;;
7446;SDS011;3765;47.962;7.952;2023-02-10T08:32:35;42.27;;;21.60;;
7446;SDS011;3765;47.962;7.952;2023-02-10T08:35:14;43.77;;;24.60;;
7446;SDS011;3765;47.962;7.952;2023-02-10T08:37:44;39.23;;;22.93;;
7446;SDS011;3765;47.962;7.952;2023-02-10T08:40:17;46.17;;;22.27;;
7446;SDS011;3765;47.962;7.952;2023-02-10T08:42:49;45.27;;;23.60;;
7446;SDS011;3765;47.962;7.952;2023-02-10T08:45:24;35.50;;;21.80;;
7446;SDS011;3765;47.962;7.952;2023-02-10T08:48:11;41.50;;;21.90;;
7446;SDS011;3765;47.962;7.952;2023-02-10T08:50:40;33.83;;;20.30;;
7446;SDS011;3765;47.962;7.952;2023-02-10T08:53:24;32.67;;;18.93;;
7446;SDS011;3765;47.962;7.952;2023-02-10T08:56:23;30.40;;;19.63;;
7446;SDS011;3765;47.962;7.952;2023-02-10T08:59:15;32.83;;;19.17;;
7446;SDS011;3765;47.962;7.952;2023-02-10T09:01:45;33.57;;;19.80;;
7446;SDS011;3765;47.962;7.952;2023-02-10T09:04:13;30.37;;;19.77;;
7446;SDS011;3765;47.962;7.952;2023-02-10T09:06:44;38.87;;;20.50;;
7446;SDS011;3765;47.962;7.952;2023-02-10T09:09:16;32.43;;;19.10;;
7446;SDS011;3765;47.962;7.952;2023-02-10T09:11:48;31.67;;;18.10;;
7446;SDS011;3765;47.962;7.952;2023-02-10T09:14:21;32.00;;;16.90;;
7446;SDS011;3765;47.962;7.952;2023-02-10T09:16:57;31.93;;;18.47;;
7446;SDS011;3765;47.962;7.952;2023-02-10T09:19:26;28.20;;;16.80;;
7446;SDS011;3765;47.962;7.952;2023-02-10T09:21:54;30.73;;;17.80;;
7446;SDS011;3765;47.962;7.952;2023-02-10T09:24:22;28.10;;;17.27;;
7446;SDS011;3765;47.962;7.952;2023-02-10T09:26:51;31.43;;;19.30;;
7446;SDS011;3765;47.962;7.952;2023-02-10T09:29:20;35.93;;;20.77;;
7446;SDS011;3765;47.962;7.952;2023-02-10T09:31:48;33.97;;;20.40;;
7446;SDS011;3765;47.962;7.952;2023-02-10T09:34:17;41.50;;;22.73;;
7446;SDS011;3765;47.962;7.952;2023-02-10T09:36:45;37.23;;;22.30;;
7446;SDS011;3765;47.962;7.952;2023-02-10T09:39:13;33.90;;;21.40;;
7446;SDS011;3765;47.962;7.952;2023-02-10T09:41:45;37.63;;;22.43;;
7446;SDS011;3765;47.962;7.952;2023-02-10T09:44:22;34.83;;;22.70;;
7446;SDS011;3765;47.962;7.952;2023-02-10T09:46:59;37.93;;;23.93;;
7446;SDS011;3765;47.962;7.952;2023-02-10T09:49:44;40.40;;;23.07;;
7446;SDS011;3765;47.962;7.952;2023-02-10T09:52:29;47.33;;;23.77;;
7446;SDS011;3765;47.962;7.952;2023-02-10T09:55:12;38.57;;;23.93;;
7446;SDS011;3765;47.962;7.952;2023-02-10T09:57:45;39.10;;;23.17;;
7446;SDS011;3765;47.962;7.952;2023-02-10T10:00:20;45.77;;;24.70;;
7446;SDS011;3765;47.962;7.952;2023-02-10T10:02:54;44.47;;;23.30;;
7446;SDS011;3765;47.962;7.952;2023-02-10T10:05:27;40.80;;;23.80;;
7446;SDS011;3765;47.962;7.952;2023-02-10T10:08:04;39.37;;;22.70;;
7446;SDS011;3765;47.962;7.952;2023-02-10T10:10:42;39.87;;;23.47;;
7446;SDS011;3765;47.962;7.952;2023-02-10T10:13:14;46.33;;;26.50;;
7446;SDS011;3765;47.962;7.952;2023-02-10T10:15:49;54.73;;;24.80;;
7446;SDS011;3765;47.962;7.952;2023-02-10T10:18:42;37.63;;;22.90;;
7446;SDS011;3765;47.962;7.952;2023-02-10T10:21:22;40.27;;;22.60;;
7446;SDS011;3765;47.962;7.952;2023-02-10T10:23:59;41.73;;;26.53;;
7446;SDS011;3765;47.962;7.952;2023-02-10T10:26:41;38.47;;;22.90;;
7446;SDS011;3765;47.962;7.952;2023-02-10T10:29:20;38.40;;;23.57;;
7446;SDS011;3765;47.962;7.952;2023-02-10T10:32:03;41.13;;;23.00;;
7446;SDS011;3765;47.962;7.952;2023-02-10T10:34:42;85.37;;;49.13;;
7446;SDS011;3765;47.962;7.952;2023-02-10T10:37:18;41.70;;;24.20;;
7446;SDS011;3765;47.962;7.952;2023-02-10T10:39:49;50.73;;;25.20;;
7446;SDS011;3765;47.962;7.952;2023-02-10T10:42:21;43.40;;;25.13;;
7446;SDS011;3765;47.962;7.952;2023-02-10T10:44:53;41.50;;;25.00;;
7446;SDS011;3765;47.962;7.952;2023-02-10T10:47:31;47.20;;;24.93;;
7446;SDS011;3765;47.962;7.952;2023-02-10T10:50:05;43.20;;;26.80;;
7446;SDS011;3765;47.962;7.952;2023-02-10T10:52:40;44.30;;;27.80;;
7446;SDS011;3765;47.962;7.952;2023-02-10T10:55:11;47.73;;;27.40;;
7446;SDS011;3765;47.962;7.952;2023-02-10T10:57:43;43.67;;;24.80;;
7446;SDS011;3765;47.962;7.952;2023-02-10T11:00:19;49.47;;;29.20;;
7446;SDS011;3765;47.962;7.952;2023-02-10T11:02:55;57.97;;;33.23;;
7446;SDS011;3765;47.962;7.952;2023-02-10T11:05:27;46.97;;;29.40;;
7446;SDS011;3765;47.962;7.952;2023-02-10T11:07:58;44.23;;;27.10;;
7446;SDS011;3765;47.962;7.952;2023-02-10T11:10:29;44.37;;;29.70;;
7446;SDS011;3765;47.962;7.952;2023-02-10T11:13:00;47.07;;;30.10;;
7446;SDS011;3765;47.962;7.952;2023-02-10T11:15:33;54.13;;;30.07;;
7446;SDS011;3765;47.962;7.952;2023-02-10T11:18:12;54.50;;;29.60;;
7446;SDS011;3765;47.962;7.952;2023-02-10T11:20:51;49.47;;;29.80;;
7446;SDS011;3765;47.962;7.952;2023-02-10T11:23:21;52.40;;;32.33;;
7446;SDS011;3765;47.962;7.952;2023-02-10T11:25:55;47.40;;;30.17;;
7446;SDS011;3765;47.962;7.952;2023-02-10T11:28:29;49.90;;;34.07;;
7446;SDS011;3765;47.962;7.952;2023-02-10T11:31:00;53.27;;;35.20;;
7446;SDS011;3765;47.962;7.952;2023-02-10T11:33:33;74.63;;;46.30;;
7446;SDS011;3765;47.962;7.952;2023-02-10T11:36:03;50.70;;;35.63;;
7446;SDS011;3765;47.962;7.952;2023-02-10T11:38:34;66.70;;;39.63;;
7446;SDS011;3765;47.962;7.952;2023-02-10T11:41:04;60.10;;;36.80;;
7446;SDS011;3765;47.962;7.952;2023-02-10T11:43:36;57.60;;;35.20;;
7446;SDS011;3765;47.962;7.952;2023-02-10T11:46:16;54.73;;;36.67;;
7446;SDS011;3765;47.962;7.952;2023-02-10T11:48:53;57.60;;;37.57;;
7446;SDS011;3765;47.962;7.952;2023-02-10T11:51:23;65.93;;;40.10;;
7446;SDS011;3765;47.962;7.952;2023-02-10T11:53:51;62.87;;;38.43;;
7446;SDS011;3765;47.962;7.952;2023-02-10T11:56:20;56.20;;;37.63;;
7446;SDS011;3765;47.962;7.952;2023-02-10T11:59:15;57.23;;;36.20;;
7446;SDS011;3765;47.962;7.952;2023-02-10T12:01:54;61.70;;;38.43;;
7446;SDS011;3765;47.962;7.952;2023-02-10T12:04:38;51.77;;;35.07;;
7446;SDS011;3765;47.962;7.952;2023-02-10T12:07:36;56.57;;;35.23;;
7446;SDS011;3765;47.962;7.952;2023-02-10T12:10:15;60.50;;;37.33;;
7446;SDS011;3765;47.962;7.952;2023-02-10T12:12:50;67.13;;;37.47;;
7446;SDS011;3765;47.962;7.952;2023-02-10T12:15:28;60.77;;;37.87;;
7446;SDS011;3765;47.962;7.952;2023-02-10T12:18:09;65.03;;;41.00;;
7446;SDS011;3765;47.962;7.952;2023-02-10T12:20:51;56.33;;;34.60;;
7446;SDS011;3765;47.962;7.952;2023-02-10T12:23:38;59.83;;;35.30;;
7446;SDS011;3765;47.962;7.952;2023-02-10T12:26:32;60.40;;;33.57;;
7446;SDS011;3765;47.962;7.952;2023-02-10T12:29:13;64.03;;;35.70;;
7446;SDS011;3765;47.962;7.952;2023-02-10T12:31:53;56.73;;;36.80;;
7446;SDS011;3765;47.962;7.952;2023-02-10T12:34:31;52.97;;;34.40;;
7446;SDS011;3765;47.962;7.952;2023-02-10T12:37:13;54.47;;;34.73;;
7446;SDS011;3765;47.962;7.952;2023-02-10T12:39:52;56.27;;;37.40;;
7446;SDS011;3765;47.962;7.952;2023-02-10T12:42:32;53.33;;;36.33;;
7446;SDS011;3765;47.962;7.952;2023-02-10T12:45:07;81.30;;;51.10;;
7446;SDS011;3765;47.962;7.952;2023-02-10T12:47:46;53.60;;;35.63;;
7446;SDS011;3765;47.962;7.952;2023-02-10T12:50:32;53.40;;;36.40;;
7446;SDS011;3765;47.962;7.952;2023-02-10T12:53:17;60.83;;;39.87;;
7446;SDS011;3765;47.962;7.952;2023-02-10T12:55:50;69.30;;;39.80;;
7446;SDS011;3765;47.962;7.952;2023-02-10T12:58:25;55.57;;;37.33;;
7446;SDS011;3765;47.962;7.952;2023-02-10T13:00:58;57.40;;;39.00;;
7446;SDS011;3765;47.962;7.952;2023-02-10T13:03:33;64.37;;;37.10;;
7446;SDS011;3765;47.962;7.952;2023-02-10T13:06:13;61.93;;;39.30;;
7446;SDS011;3765;47.962;7.952;2023-02-10T13:08:48;60.03;;;36.77;;
7446;SDS011;3765;47.962;7.952;2023-02-10T13:11:20;55.47;;;36.43;;
7446;SDS011;3765;47.962;7.952;2023-02-10T13:13:56;56.17;;;36.83;;
7446;SDS011;3765;47.962;7.952;2023-02-10T13:16:28;63.87;;;37.43;;
7446;SDS011;3765;47.962;7.952;2023-02-10T13:19:02;79.03;;;45.00;;
7446;SDS011;3765;47.962;7.952;2023-02-10T13:21:38;62.47;;;39.47;;
7446;SDS011;3765;47.962;7.952;2023-02-10T13:24:13;58.07;;;36.90;;
7446;SDS011;3765;47.962;7.952;2023-02-10T13:26:48;62.13;;;35.93;;
7446;SDS011;3765;47.962;7.952;2023-02-10T13:29:25;62.80;;;36.13;;
7446;SDS011;3765;47.962;7.952;2023-02-10T13:32:05;58.47;;;39.30;;
7446;SDS011;3765;47.962;7.952;2023-02-10T13:34:53;56.50;;;35.70;;
7446;SDS011;3765;47.962;7.952;2023-02-10T13:37:28;64.43;;;36.77;;
7446;SDS011;3765;47.962;7.952;2023-02-10T13:40:01;56.23;;;34.20;;
7446;SDS011;3765;47.962;7.952;2023-02-10T13:42:33;51.67;;;34.97;;
7446;SDS011;3765;47.962;7.952;2023-02-10T13:45:05;54.37;;;34.87;;
7446;SDS011;3765;47.962;7.952;2023-02-10T13:47:42;65.40;;;43.80;;
7446;SDS011;3765;47.962;7.952;2023-02-10T13:50:18;57.57;;;34.80;;
7446;SDS011;3765;47.962;7.952;2023-02-10T13:52:56;48.37;;;34.77;;
7446;SDS011;3765;47.962;7.952;2023-02-10T13:55:36;57.50;;;34.50;;
7446;SDS011;3765;47.962;7.952;2023-02-10T13:58:17;52.87;;;33.50;;
7446;SDS011;3765;47.962;7.952;2023-02-10T14:00:54;48.90;;;34.10;;
7446;SDS011;3765;47.962;7.952;2023-02-10T14:03:24;54.00;;;33.33;;
7446;SDS011;3765;47.962;7.952;2023-02-10T14:05:54;53.23;;;36.07;;
7446;SDS011;3765;47.962;7.952;2023-02-10T14:08:26;56.30;;;35.87;;
7446;SDS011;3765;47.962;7.952;2023-02-10T14:10:59;54.97;;;36.10;;
7446;SDS011;3765;47.962;7.952;2023-02-10T14:13:30;51.10;;;34.07;;
7446;SDS011;3765;47.962;7.952;2023-02-10T14:16:01;53.50;;;34.57;;
7446;SDS011;3765;47.962;7.952;2023-02-10T14:18:32;52.60;;;35.10;;
7446;SDS011;3765;47.962;7.952;2023-02-10T14:21:02;51.33;;;35.13;;
7446;SDS011;3765;47.962;7.952;2023-02-10T14:23:32;47.53;;;33.47;;
7446;SDS011;3765;47.962;7.952;2023-02-10T14:26:04;50.13;;;35.07;;
7446;SDS011;3765;47.962;7.952;2023-02-10T14:28:34;52.17;;;33.53;;
7446;SDS011;3765;47.962;7.952;2023-02-10T14:31:06;49.37;;;33.00;;
7446;SDS011;3765;47.962;7.952;2023-02-10T14:33:39;48.97;;;33.23;;
7446;SDS011;3765;47.962;7.952;2023-02-10T14:36:14;53.70;;;35.30;;
7446;SDS011;3765;47.962;7.952;2023-02-10T14:38:44;50.67;;;33.10;;
7446;SDS011;3765;47.962;7.952;2023-02-10T14:41:19;54.53;;;35.40;;
7446;SDS011;3765;47.962;7.952;2023-02-10T14:43:48;49.67;;;33.23;;
7446;SDS011;3765;47.962;7.952;2023-02-10T14:46:19;68.40;;;38.00;;
7446;SDS011;3765;47.962;7.952;2023-02-10T14:48:49;63.50;;;36.90;;
7446;SDS011;3765;47.962;7.952;2023-02-10T14:51:24;62.43;;;32.97;;
7446;SDS011;3765;47.962;7.952;2023-02-10T14:53:53;55.33;;;36.47;;
7446;SDS011;3765;47.962;7.952;2023-02-10T14:56:23;56.63;;;33.90;;
7446;SDS011;3765;47.962;7.952;2023-02-10T14:58:54;54.23;;;33.60;;
7446;SDS011;3765;47.962;7.952;2023-02-10T15:01:23;56.33;;;32.63;;
7446;SDS011;3765;47.962;7.952;2023-02-10T15:03:53;59.30;;;37.50;;
7446;SDS011;3765;47.962;7.952;2023-02-10T15:06:24;55.07;;;33.97;;
7446;SDS011;3765;47.962;7.952;2023-02-10T15:08:55;58.60;;;32.90;;
7446;SDS011;3765;47.962;7.952;2023-02-10T15:11:28;62.20;;;35.20;;
7446;SDS011;3765;47.962;7.952;2023-02-10T15:14:18;57.20;;;34.97;;
7446;SDS011;3765;47.962;7.952;2023-02-10T15:16:51;54.43;;;34.80;;
7446;SDS011;3765;47.962;7.952;2023-02-10T15:19:20;96.07;;;56.93;;
7446;SDS011;3765;47.962;7.952;2023-02-10T15:21:49;53.80;;;34.43;;
7446;SDS011;3765;47.962;7.952;2023-02-10T15:24:24;93.23;;;47.37;;
7446;SDS011;3765;47.962;7.952;2023-02-10T15:26:56;78.30;;;47.00;;
7446;SDS011;3765;47.962;7.952;2023-02-10T15:29:36;58.97;;;39.63;;
7446;SDS011;3765;47.962;7.952;2023-02-10T15:32:04;61.93;;;37.23;;
7446;SDS011;3765;47.962;7.952;2023-02-10T15:34:44;54.53;;;34.60;;
7446;SDS011;3765;47.962;7.952;2023-02-10T15:37:17;55.00;;;34.67;;
7446;SDS011;3765;47.962;7.952;2023-02-10T15:39:53;59.70;;;37.37;;
7446;SDS011;3765;47.962;7.952;2023-02-10T15:42:27;60.53;;;36.27;;
7446;SDS011;3765;47.962;7.952;2023-02-10T15:45:01;60.60;;;36.13;;